Latest Weather Observations for Warrnambool

IDV60801

Issued at 10:31 pm EST Saturday 25 April 2015 (issued every 30 minutes, with the page automatically refreshed every 10 minutes)

About weather observations | Map of weather stations | Latest weather observations for VIC | Other Formats
Station Details ID: 090186 Name: WARRNAMBOOL AIRPORT NDB Lat: -38.29 Lon: 142.45 Height: 70.8 m
Data from the previous 72 hours. | See also: Recent months at Warrnambool
Date/Time
EST
Temp
°C
App
Temp
°C
Dew
Point
Rel
Hum
%
Delta-T
°C
Wind Press
QNH
hPa
Press
MSL
hPa
Rain
since 9 am
mm
Dir
 
Spd
km/h
Gust
km/h
Spd
kts
Gust
kts
25/10:30pm 10.4 5.9 8.7 89 0.8 SSW 22 32 12 17 1017.3 1017.2 2.4
25/10:00pm 11.0 6.0 8.2 83 1.4 SSW 24 33 13 18 1017.2 1017.1 2.4
25/09:30pm 11.7 6.7 8.0 78 1.8 S 24 32 13 17 1016.9 1016.8 2.4
25/09:00pm 11.7 7.1 6.4 70 2.5 SSW 20 22 11 12 1016.7 1016.6 2.4
25/08:30pm 11.7 6.3 6.4 70 2.5 SSW 24 28 13 15 1016.5 1016.4 2.4
25/08:00pm 11.9 6.3 7.2 73 2.3 S 26 32 14 17 1016.1 1016.0 2.4
25/07:30pm 12.2 6.2 7.1 71 2.5 S 28 41 15 22 1015.9 1015.8 2.4
25/07:00pm 12.0 6.2 8.1 77 1.9 S 28 35 15 19 1015.5 1015.4 2.4
25/06:30pm 12.1 6.4 8.4 78 1.8 S 28 35 15 19 1015.0 1014.9 2.4
25/06:00pm 11.9 6.5 9.5 85 1.2 SSE 28 35 15 19 1014.5 1014.4 2.4
25/05:30pm 12.6 7.2 9.4 81 1.6 S 28 50 15 27 1014.0 1013.9 2.4
25/05:00pm 12.7 6.2 10.4 86 1.2 S 35 44 19 24 1013.6 1013.5 2.4
25/04:30pm 13.0 6.9 9.8 81 1.6 S 32 41 17 22 1013.1 1013.0 2.4
25/04:00pm 13.6 6.8 10.6 82 1.6 S 37 48 20 26 1012.6 1012.6 2.4
25/03:30pm 14.0 7.7 11.2 83 1.5 S 35 46 19 25 1012.3 1012.3 2.4
25/03:02pm 13.9 7.9 12.1 89 1.0 SSE 35 46 19 25 1011.9 1011.9 2.4
25/03:00pm 13.6 7.5 11.7 88 1.0 SSE 35 46 19 25 1011.8 1011.8 2.4
25/02:43pm 13.8 8.6 12.7 93 0.6 SSE 32 43 17 23 1011.5 1011.5 2.4
25/02:30pm 13.8 8.4 12.7 93 0.6 S 33 44 18 24 1011.4 1011.4 2.4
25/02:28pm 13.6 8.3 12.5 93 0.6 S 32 44 17 24 1011.3 1011.3 2.4
25/02:12pm 13.4 9.7 12.6 95 0.4 S 24 35 13 19 1011.2 1011.2 2.4
25/02:00pm 13.6 11.3 13.0 96 0.3 SSE 17 20 9 11 1011.1 1011.1 2.0
25/01:44pm 13.5 11.7 13.3 99 0.1 S 15 19 8 10 1011.1 1011.1 2.0
25/01:35pm 13.3 11.0 13.1 99 0.1 SSE 17 22 9 12 1011.1 1011.1 2.0
25/01:30pm 13.0 10.1 12.8 99 0.1 SSE 20 30 11 16 1011.0 1011.0 2.0
25/01:15pm 13.6 9.7 13.4 99 0.1 SSE 26 35 14 19 1011.0 1011.0 1.8
25/01:02pm 13.2 9.6 13.0 99 0.1 SSE 24 32 13 17 1010.9 1010.9 1.8
25/01:00pm 13.3 9.7 13.1 99 0.1 SSE 24 32 13 17 1010.9 1010.9 1.8
25/12:30pm 13.1 8.7 12.9 99 0.1 SSE 28 39 15 21 1010.8 1010.8 1.8
25/12:29pm 13.0 8.6 12.8 99 0.1 SSE 28 37 15 20 1010.8 1010.8 1.8
25/12:15pm 13.1 9.5 12.9 99 0.1 SSE 24 35 13 19 1010.7 1010.7 1.6
25/12:00pm 13.1 9.1 12.9 99 0.1 SSE 26 33 14 18 1010.6 1010.6 1.0
25/11:57am 13.2 9.6 13.0 99 0.1 SSE 24 33 13 18 1010.6 1010.6 1.0
25/11:56am 13.2 9.2 13.0 99 0.1 SSE 26 35 14 19 1010.6 1010.6 1.0
25/11:38am 13.4 10.6 13.2 99 0.1 SSE 20 33 11 18 1010.5 1010.5 0.8
25/11:30am 13.7 11.0 13.5 99 0.1 SSE 20 26 11 14 1010.4 1010.4 0.4
25/11:00am 13.8 11.9 13.0 95 0.4 SW 15 20 8 11 1010.2 1010.2 0.0
25/10:30am 13.6 10.7 12.3 92 0.7 SW 19 22 10 12 1009.9 1009.9 0.0
25/10:22am 13.4 10.4 12.0 91 0.8 SW 19 22 10 12 1009.9 1009.9 0.0
25/10:00am 13.1 10.9 12.2 94 0.5 SW 15 20 8 11 1009.6 1009.6 0.0
25/09:30am 12.5 10.8 12.3 99 0.1 SW 13 17 7 9 1009.6 1009.6 0.0
25/09:00am 11.5 9.4 11.3 99 0.1 WSW 13 15 7 8 1009.4 1009.4 5.8
25/08:30am 10.7 8.8 10.5 99 0.1 W 11 13 6 7 1009.3 1009.3 5.8
25/08:00am 10.5 7.8 10.3 99 0.1 W 15 17 8 9 1008.8 1008.8 5.8
25/07:30am 10.2 7.0 10.0 99 0.1 W 17 19 9 10 1008.4 1008.4 5.8
25/07:00am 9.8 7.7 9.7 99 0.1 NW 11 15 6 8 1008.2 1008.2 5.4
25/06:30am 9.5 6.4 9.0 97 0.2 WNW 15 17 8 9 1007.9 1007.9 5.4
25/06:00am 9.4 6.7 8.9 97 0.2 WNW 13 19 7 10 1007.4 1007.4 5.4
25/05:30am 9.3 6.5 8.7 96 0.3 WNW 13 19 7 10 1007.0 1007.0 5.4
25/05:00am 9.3 6.9 8.7 96 0.3 WNW 11 17 6 9 1007.0 1007.0 5.4
25/04:30am 9.0 6.2 8.4 96 0.3 NW 13 17 7 9 1006.9 1006.9 5.4
25/04:00am 8.9 6.0 8.3 96 0.3 NW 13 17 7 9 1006.9 1006.9 5.4
25/03:30am 9.0 6.1 8.2 95 0.4 NW 13 17 7 9 1006.8 1006.8 5.4
25/03:00am 8.9 6.0 8.3 96 0.3 NW 13 17 7 9 1006.7 1006.7 5.4
25/02:30am 8.5 5.6 8.2 98 0.1 NNW 13 17 7 9 1006.8 1006.8 5.4
25/02:00am 8.4 5.8 7.8 96 0.3 NNW 11 13 6 7 1006.7 1006.7 5.4
25/01:30am 9.1 6.3 8.5 96 0.3 NW 13 17 7 9 1006.6 1006.5 5.4
25/01:00am 9.5 6.7 8.6 94 0.4 NW 13 15 7 8 1006.5 1006.4 5.4
25/12:30am 10.0 6.9 8.9 93 0.5 NW 15 20 8 11 1006.5 1006.4 5.4
25/12:00am 10.0 7.0 9.1 94 0.4 NW 15 19 8 10 1006.4 1006.3 5.4
 
Date/Time
EST
Temp
°C
App
Temp
°C
Dew
Point
Rel
Hum
%
Delta-T
°C
Wind Press
QNH
hPa
Press
MSL
hPa
Rain
since 9 am
mm
Dir
 
Spd
km/h
Gust
km/h
Spd
kts
Gust
kts
24/11:30pm 10.4 8.2 9.2 92 0.6 WNW 11 17 6 9 1006.6 1006.5 5.4
24/11:00pm 10.5 7.2 9.4 93 0.6 NW 17 22 9 12 1006.5 1006.4 5.4
24/10:30pm 10.6 7.0 9.7 94 0.5 NW 19 24 10 13 1006.3 1006.2 5.4
24/10:00pm 10.6 6.9 10.0 96 0.3 NW 20 26 11 14 1006.1 1006.0 5.4
24/09:30pm 10.6 7.1 10.1 97 0.3 NW 19 22 10 12 1006.1 1006.0 5.4
24/09:00pm 10.3 7.1 10.1 99 0.1 NW 17 20 9 11 1006.1 1006.0 5.4
24/08:30pm 10.0 7.6 9.9 99 0.1 NNW 13 15 7 8 1005.8 1005.7 5.4
24/08:00pm 9.9 7.4 9.8 99 0.1 NNW 13 17 7 9 1005.8 1005.7 5.2
24/07:30pm 9.6 7.7 9.0 96 0.3 WNW 9 13 5 7 1005.5 1005.4 5.2
24/07:00pm 11.0 8.7 10.5 97 0.3 W 13 17 7 9 1005.3 1005.2 5.2
24/06:30pm 11.4 7.1 10.9 97 0.3 W 24 32 13 17 1005.2 1005.1 5.2
24/06:27pm 11.4 6.8 10.9 97 0.3 W 26 33 14 18 1005.2 1005.1 5.2
24/06:00pm 11.8 7.0 11.6 99 0.1 W 28 43 15 23 1004.8 1004.7 5.2
24/05:41pm 12.1 8.9 11.9 99 0.1 WNW 20 32 11 17 1004.5 1004.4 5.2
24/05:34pm 12.0 8.0 11.8 99 0.1 W 24 30 13 16 1004.4 1004.3 5.2
24/05:30pm 12.0 7.2 11.7 98 0.2 W 28 37 15 20 1004.3 1004.2 5.0
24/05:09pm 14.1 13.3 11.6 85 1.3 SSE 7 52 4 28 1004.1 1004.0 1.6
24/05:00pm 15.4 14.5 12.5 83 1.6 SSE 9 13 5 7 1003.0 1002.9 0.0
24/04:30pm 15.6 13.8 12.0 79 2.0 S 13 15 7 8 1002.8 1002.7 0.0
24/04:00pm 16.5 15.4 12.1 75 2.4 S 9 11 5 6 1002.7 1002.6 0.0
24/03:30pm 17.0 15.5 11.9 72 2.8 SSW 11 15 6 8 1002.6 1002.5 0.0
24/03:00pm 18.7 18.0 12.0 65 3.7 NNW 7 13 4 7 1002.6 1002.5 0.0
24/02:30pm 18.1 15.8 10.5 61 4.1 WNW 13 20 7 11 1002.8 1002.7 0.0
24/02:00pm 17.2 15.1 11.2 68 3.3 WNW 13 19 7 10 1003.1 1003.0 0.0
24/01:30pm 17.5 15.5 11.5 68 3.3 WNW 13 19 7 10 1003.4 1003.3 0.0
24/01:00pm 16.7 15.3 12.3 75 2.4 WNW 11 15 6 8 1003.6 1003.5 0.0
24/12:30pm 15.8 14.6 12.7 82 1.7 WNW 11 13 6 7 1004.2 1004.1 0.0
24/12:19pm 15.8 14.1 12.4 80 1.9 WNW 13 19 7 10 1004.4 1004.3 0.0
24/12:00pm 15.9 14.8 13.0 83 1.6 WNW 11 17 6 9 1004.6 1004.5 0.0
24/11:30am 15.5 14.0 13.2 86 1.3 W 13 17 7 9 1004.9 1004.8 0.0
24/11:00am 15.1 13.2 13.0 87 1.2 WNW 15 20 8 11 1005.1 1005.0 0.0
24/10:53am 14.9 12.9 12.6 86 1.3 WNW 15 20 8 11 1005.0 1004.9 0.0
24/10:30am 14.9 13.0 12.9 88 1.1 WNW 15 20 8 11 1005.0 1004.9 0.0
24/10:18am 14.9 13.3 12.9 88 1.1 WNW 13 20 7 11 1005.1 1005.0 0.0
24/10:00am 14.4 12.1 13.1 92 0.7 NW 17 22 9 12 1005.2 1005.1 0.0
24/09:30am 14.0 11.2 12.7 92 0.7 NW 19 24 10 13 1005.4 1005.3 0.0
24/09:20am 14.3 12.1 13.2 93 0.6 NW 17 22 9 12 1005.5 1005.4 0.0
24/09:00am 14.3 13.0 13.7 96 0.3 NW 13 19 7 10 1005.5 1005.4 0.0
24/08:30am 13.5 12.8 13.3 99 0.1 NNW 9 13 5 7 1005.6 1005.5 0.0
24/08:00am 12.9 12.4 12.7 99 0.1 NNW 7 9 4 5 1005.5 1005.4 0.0
24/07:38am 12.7 11.4 12.5 99 0.1 NNW 11 13 6 7 1005.7 1005.6 0.0
24/07:30am 12.7 11.4 12.5 99 0.1 NW 11 13 6 7 1005.6 1005.5 0.0
24/07:25am 12.6 11.6 12.4 99 0.1 NW 9 11 5 6 1005.5 1005.4 0.0
24/07:01am 12.6 11.6 12.4 99 0.1 NW 9 13 5 7 1005.5 1005.4 0.0
24/07:00am 12.6 11.6 12.4 99 0.1 NW 9 13 5 7 1005.5 1005.4 0.0
24/06:38am 12.7 11.4 12.5 99 0.1 NNW 11 13 6 7 1005.8 1005.7 0.0
24/06:30am 12.8 11.5 12.6 99 0.1 NNW 11 13 6 7 1005.8 1005.7 0.0
24/06:00am 13.0 11.4 12.8 99 0.1 NNW 13 17 7 9 1005.5 1005.4 0.0
24/05:30am 13.1 11.5 12.9 99 0.1 NNW 13 15 7 8 1005.6 1005.5 0.0
24/05:00am 13.1 12.3 12.9 99 0.1 NNW 9 13 5 7 1006.0 1005.9 0.0
24/04:30am 13.0 12.2 12.8 99 0.1 NNW 9 13 5 7 1006.1 1006.0 0.0
24/04:00am 12.8 12.3 12.6 99 0.1 N 7 9 4 5 1006.2 1006.1 0.0
24/03:30am 12.6 11.6 12.4 99 0.1 N 9 11 5 6 1006.4 1006.3 0.0
24/03:00am 12.3 11.6 12.1 99 0.1 NNW 7 9 4 5 1006.9 1006.9 0.0
24/02:53am 12.1 11.4 11.9 99 0.1 NNW 7 7 4 4 1006.9 1006.9 0.0
24/02:49am 12.0 11.4 11.8 99 0.1 NNW 6 7 3 4 1007.0 1007.0 0.0
24/02:30am 11.3 11.7 11.1 99 0.1 CALM 0 0 0 0 1007.2 1007.2 0.0
24/02:21am 11.2 11.5 11.0 99 0.1 CALM 0 0 0 0 1007.3 1007.3 0.0
24/02:06am 11.4 11.8 11.2 99 0.1 CALM 0 0 0 0 1007.6 1007.6 0.0
24/02:00am 11.3 11.7 11.1 99 0.1 CALM 0 0 0 0 1007.8 1007.8 0.0
24/01:30am 12.4 13.1 12.2 99 0.1 CALM 0 0 0 0 1008.3 1008.3 0.0
24/01:00am 12.4 12.3 12.2 99 0.1 WSW 4 7 2 4 1008.7 1008.7 0.0
24/12:30am 12.4 13.0 11.9 97 0.3 CALM 0 0 0 0 1009.1 1009.1 0.0
24/12:00am 13.1 13.8 12.2 94 0.5 CALM 0 0 0 0 1009.3 1009.3 0.0
 
Date/Time
EST
Temp
°C
App
Temp
°C
Dew
Point
Rel
Hum
%
Delta-T
°C
Wind Press
QNH
hPa
Press
MSL
hPa
Rain
since 9 am
mm
Dir
 
Spd
km/h
Gust
km/h
Spd
kts
Gust
kts
23/11:30pm 13.4 12.9 12.5 94 0.5 WNW 7 7 4 4 1010.1 1010.1 0.0
23/11:00pm 13.5 14.3 12.6 94 0.5 CALM 0 0 0 0 1010.5 1010.5 0.0
23/10:30pm 13.7 14.5 12.6 93 0.6 CALM 0 0 0 0 1010.8 1010.8 0.0
23/10:00pm 13.8 14.6 12.5 92 0.7 CALM 0 0 0 0 1011.3 1011.3 0.0
23/09:30pm 13.9 14.6 12.3 90 0.9 CALM 0 0 0 0 1011.5 1011.5 0.0
23/09:00pm 14.3 15.0 12.2 87 1.1 CALM 0 6 0 3 1011.5 1011.5 0.0
23/08:30pm 14.5 13.9 12.2 86 1.3 E 7 9 4 5 1011.8 1011.8 0.0
23/08:00pm 14.7 13.7 12.2 85 1.4 ESE 9 13 5 7 1011.8 1011.8 0.0
23/07:30pm 14.8 13.8 12.3 85 1.4 E 9 13 5 7 1012.2 1012.2 0.0
23/07:00pm 15.0 14.6 12.9 87 1.2 ESE 7 11 4 6 1012.3 1012.3 0.0
23/06:30pm 15.1 14.6 12.8 86 1.3 ESE 7 13 4 7 1012.3 1012.3 0.0
23/06:00pm 15.4 13.8 12.7 84 1.5 SE 13 17 7 9 1012.6 1012.6 0.0
23/05:30pm 15.7 14.5 12.8 83 1.6 SE 11 17 6 9 1013.0 1012.9 0.0
23/05:00pm 15.8 13.5 12.9 83 1.6 SE 17 20 9 11 1013.1 1013.0 0.0
23/04:30pm 16.0 13.7 12.9 82 1.7 SE 17 20 9 11 1013.7 1013.6 0.0
23/04:00pm 16.3 13.5 13.2 82 1.7 SSE 20 26 11 14 1013.7 1013.6 0.0
23/03:30pm 16.4 14.1 13.1 81 1.8 SSE 17 20 9 11 1014.0 1013.9 0.0
23/03:00pm 16.5 13.8 13.0 80 2.0 SSE 19 24 10 13 1014.5 1014.4 0.0
23/02:30pm 16.4 13.2 13.1 81 1.8 SSE 22 30 12 16 1014.5 1014.4 0.0
23/02:00pm 16.9 13.7 13.2 79 2.1 SSE 22 28 12 15 1015.2 1015.1 0.0
23/01:30pm 16.1 13.4 13.4 84 1.5 SSE 20 26 11 14 1015.5 1015.4 0.0
23/01:00pm 16.4 13.6 13.3 82 1.7 SSE 20 26 11 14 1016.1 1016.0 0.0
23/12:30pm 16.1 13.4 13.4 84 1.5 SSE 20 28 11 15 1016.7 1016.6 0.0
23/12:00pm 16.3 13.9 12.8 80 1.9 SE 17 24 9 13 1017.2 1017.1 0.0
23/11:30am 17.0 14.7 11.7 71 2.9 SE 15 20 8 11 1017.8 1017.7 0.0
23/11:00am 16.9 14.5 11.4 70 3.0 ESE 15 22 8 12 1018.3 1018.2 0.0
23/10:30am 16.3 13.9 12.5 78 2.1 ESE 17 24 9 13 1018.7 1018.7 0.0
23/10:03am 15.8 13.9 12.9 83 1.6 SE 15 20 8 11 1019.0 1019.0 0.0
23/10:00am 15.9 14.0 13.0 83 1.6 SE 15 20 8 11 1019.1 1019.1 0.0
23/09:30am 15.5 12.7 13.2 86 1.3 SE 20 30 11 16 1019.3 1019.3 0.0
23/09:00am 15.0 12.1 13.0 88 1.1 SE 20 30 11 16 1019.8 1019.8 0.0
23/08:30am 14.8 12.2 13.2 90 0.9 SE 19 28 10 15 1020.0 1020.0 0.0
23/08:00am 14.6 12.0 13.1 91 0.8 SE 19 24 10 13 1020.1 1020.1 0.0
23/07:59am 14.6 12.0 13.1 91 0.8 SE 19 26 10 14 1020.1 1020.1 0.0
23/07:30am 14.4 11.8 13.1 92 0.7 SE 19 24 10 13 1020.0 1020.0 0.0
23/07:00am 14.3 12.1 13.2 93 0.6 SE 17 26 9 14 1020.1 1020.1 0.0
23/06:30am 14.3 11.7 13.2 93 0.6 SE 19 28 10 15 1020.1 1020.1 0.0
23/06:00am 14.3 12.2 13.5 95 0.4 SSE 17 24 9 13 1020.1 1020.1 0.0
23/05:42am 14.3 11.7 13.3 94 0.6 SE 19 26 10 14 1020.1 1020.1 0.0
23/05:30am 14.2 11.6 13.2 94 0.6 SE 19 24 10 13 1020.2 1020.2 0.0
23/05:26am 14.2 11.6 13.2 94 0.6 SE 19 24 10 13 1020.3 1020.3 0.0
23/05:00am 14.2 12.0 13.2 94 0.6 SSE 17 20 9 11 1020.2 1020.2 0.0
23/04:30am 14.4 13.0 13.4 94 0.6 SE 13 20 7 11 1020.3 1020.3 0.0
23/04:00am 14.4 12.6 13.3 93 0.6 SE 15 19 8 10 1020.3 1020.3 0.0
23/03:30am 14.2 11.9 13.1 93 0.6 SE 17 20 9 11 1020.4 1020.4 0.0
23/03:00am 13.9 11.9 12.8 93 0.6 SE 15 20 8 11 1020.7 1020.7 0.0
23/02:30am 13.8 11.7 12.5 92 0.7 SE 15 20 8 11 1021.2 1021.2 0.0
23/02:00am 13.9 12.5 12.1 89 1.0 SE 11 15 6 8 1021.4 1021.4 0.0
23/01:30am 14.0 12.2 12.0 88 1.1 SE 13 19 7 10 1021.7 1021.7 0.0
23/01:00am 14.1 11.9 12.1 88 1.1 SE 15 20 8 11 1021.9 1021.9 0.0
23/12:30am 14.1 11.3 12.5 90 0.9 SSE 19 22 10 12 1022.1 1022.1 0.0
23/12:00am 14.3 12.8 13.0 92 0.7 SE 13 20 7 11 1022.6 1022.6 0.0
 
Date/Time
EST
Temp
°C
App
Temp
°C
Dew
Point
Rel
Hum
%
Delta-T
°C
Wind Press
QNH
hPa
Press
MSL
hPa
Rain
since 9 am
mm
Dir
 
Spd
km/h
Gust
km/h
Spd
kts
Gust
kts
22/11:30pm 14.3 12.7 12.7 90 0.9 SE 13 17 7 9 1023.0 1023.0 0.0
22/11:00pm 14.3 11.9 12.5 89 1.0 SSE 17 20 9 11 1023.2 1023.2 0.0

Other Formats:

Comma delimited format used in spreadsheet applications
http://www.bom.gov.au/fwo/IDV60801/IDV60801.94837.axf

JavaScript Object Notation format (JSON) in row-major order
http://www.bom.gov.au/fwo/IDV60801/IDV60801.94837.json